Terminal Aerodrome Forecast
Issued by NWS Birmingham, AL

Home | Current Version | Previous Version | Text Only | Print | Product List | Glossary On
Versions: 1 2 3 4 5 6 7 8 9 10 11 12 13 14 15 16 17 18 19 20 21 22 23 24 25
000
FTUS44 KBMX 051759
TAFBHM
TAF
KBHM 051759Z 0518/0618 12006KT P6SM SCT040 BKN100
     FM052100 12006KT P6SM VCSH SCT050 BKN060
     FM060300 00000KT P6SM FEW030 SCT070
     FM061200 VRB03KT P6SM SCT020 BKN050 PROB30 0615/0618 4SM SHRA
      BKN015 BKN030=

USA.gov is the U.S. government's official web portal to all federal, state and local government web resources and services.